Time;durP1;ratioP1;P1;durP2;ratioP2;P2;SDS_P1;SDS_P2;PMS_P1;PMS_P2;Temp;Humidity;BMP_temperature;BMP_pressure;BME280_temperature;BME280_humidity;BME280_pressure;Samples;Min_cycle;Max_cycle;Signal;HPM_P1;HPM_P2
2023/12/20 00:01:56;;;;;;;0.30;0.30;;;;;;;2.59;98.13;97323.72;5043812;28;20051;-62
2023/12/20 00:04:23;;;;;;;0.30;0.30;;;;;;;2.41;98.22;97346.59;5043635;28;20603;-63
2023/12/20 00:06:49;;;;;;;0.30;0.30;;;;;;;2.40;98.56;97331.31;5041999;28;20053;-63
2023/12/20 00:09:16;;;;;;;0.30;0.30;;;;;;;2.19;97.81;97286.47;5042208;28;20511;-65
2023/12/20 00:11:43;;;;;;;0.38;0.38;;;;;;;1.90;96.51;97212.38;5042795;28;20064;-63
2023/12/20 00:14:10;;;;;;;0.40;0.40;;;;;;;2.49;96.71;97327.53;5044078;28;20053;-63
2023/12/20 00:16:37;;;;;;;0.30;0.30;;;;;;;2.30;96.23;97299.59;5042343;28;20049;-64
2023/12/20 00:19:03;;;;;;;0.30;0.30;;;;;;;2.29;95.22;97319.03;5043958;28;20059;-63
2023/12/20 00:21:30;;;;;;;0.30;0.30;;;;;;;1.59;95.12;97215.00;5041958;28;20067;-63
2023/12/20 00:23:57;;;;;;;0.32;0.32;;;;;;;2.36;95.11;97330.31;5043576;28;20230;-64
2023/12/20 00:26:24;;;;;;;0.30;0.30;;;;;;;2.26;95.01;97336.81;5043790;28;20053;-64
2023/12/20 00:28:51;;;;;;;0.30;0.30;;;;;;;1.82;95.39;97268.50;5042555;28;20132;-62
2023/12/20 00:31:18;;;;;;;0.30;0.30;;;;;;;2.12;96.05;97325.16;5043639;28;20055;-63
2023/12/20 00:33:46;;;;;;;0.30;0.30;;;;;;;2.09;96.74;97333.97;5043527;28;20080;-64
2023/12/20 00:36:13;;;;;;;0.32;0.32;;;;;;;2.13;97.00;97331.44;5043268;28;20049;-63
2023/12/20 00:38:39;;;;;;;0.40;0.40;;;;;;;2.14;96.49;97335.75;5041901;28;20060;-63
2023/12/20 00:41:06;;;;;;;0.38;0.38;;;;;;;2.13;96.67;97320.50;5043361;28;20056;-62
2023/12/20 00:43:33;;;;;;;0.40;0.40;;;;;;;2.19;96.53;97311.06;5041555;28;20057;-64
2023/12/20 00:46:00;;;;;;;0.30;0.30;;;;;;;2.15;96.05;97312.81;5043729;28;20068;-63
2023/12/20 00:48:27;;;;;;;0.40;0.40;;;;;;;1.93;96.66;97282.75;5046254;28;20056;-64
2023/12/20 00:50:54;;;;;;;0.30;0.30;;;;;;;1.87;96.04;97283.97;5045529;28;20060;-63
2023/12/20 00:53:20;;;;;;;0.30;0.30;;;;;;;2.15;95.64;97301.88;5047246;28;20056;-63
2023/12/20 00:55:47;;;;;;;0.30;0.30;;;;;;;1.85;95.46;97247.97;5046806;28;20057;-62
2023/12/20 00:58:15;;;;;;;0.32;0.32;;;;;;;2.25;95.08;97301.63;5045828;28;20057;-65
2023/12/20 01:00:42;;;;;;;0.38;0.38;;;;;;;2.13;95.04;97315.03;5047303;28;20478;-63
2023/12/20 01:03:10;;;;;;;0.30;0.30;;;;;;;2.10;95.88;97299.25;5047553;28;20048;-62
2023/12/20 01:05:37;;;;;;;0.40;0.40;;;;;;;2.16;95.85;97292.56;5047072;28;20076;-63
2023/12/20 01:08:04;;;;;;;0.40;0.40;;;;;;;1.87;95.99;97256.66;5046834;28;20148;-63
2023/12/20 01:10:31;;;;;;;0.30;0.30;;;;;;;2.14;96.65;97289.31;5047058;28;20520;-63
2023/12/20 01:12:58;;;;;;;0.40;0.40;;;;;;;2.08;96.37;97266.78;5062249;28;20049;-63
2023/12/20 01:15:25;;;;;;;0.30;0.30;;;;;;;2.08;95.90;97290.56;5045585;28;20051;-62
2023/12/20 01:17:52;;;;;;;0.30;0.30;;;;;;;1.78;97.00;97274.91;5046469;28;20432;-62
2023/12/20 01:20:20;;;;;;;0.30;0.30;;;;;;;1.68;96.79;97236.91;5045381;28;20052;-63
2023/12/20 01:22:47;;;;;;;0.40;0.40;;;;;;;1.98;96.63;97263.47;5046975;28;20061;-62
2023/12/20 01:25:13;;;;;;;0.30;0.30;;;;;;;1.44;96.37;97186.13;5045107;28;20068;-64
2023/12/20 01:27:40;;;;;;;0.30;0.30;;;;;;;1.92;96.11;97259.25;5047047;28;20314;-64
2023/12/20 01:30:08;;;;;;;0.30;0.30;;;;;;;1.49;95.41;97191.47;5046810;28;20048;-65
2023/12/20 01:32:34;;;;;;;0.30;0.30;;;;;;;1.67;95.91;97262.59;5047076;28;20556;-63
2023/12/20 01:35:01;;;;;;;0.30;0.30;;;;;;;1.81;96.89;97247.78;5046982;28;20063;-64
2023/12/20 01:37:29;;;;;;;0.30;0.30;;;;;;;1.82;95.61;97243.94;5047204;28;20130;-64
2023/12/20 01:39:56;;;;;;;0.35;0.35;;;;;;;1.65;96.35;97256.63;5046884;28;20052;-64
2023/12/20 01:42:23;;;;;;;0.30;0.30;;;;;;;1.28;95.98;97189.53;5046822;28;20334;-64
2023/12/20 01:44:50;;;;;;;0.30;0.30;;;;;;;1.66;96.28;97239.16;5045362;28;20135;-64
2023/12/20 01:47:17;;;;;;;0.30;0.30;;;;;;;1.72;95.34;97240.63;5045101;28;20063;-64
2023/12/20 01:49:44;;;;;;;0.30;0.30;;;;;;;1.58;95.08;97231.69;5047004;28;20728;-63
2023/12/20 01:52:11;;;;;;;0.30;0.30;;;;;;;1.50;94.42;97228.56;5044948;28;20059;-64
2023/12/20 01:54:41;;;;;;;0.30;0.30;;;;;;;0.72;95.04;97097.25;5046166;28;20777;-63
2023/12/20 01:57:09;;;;;;;0.30;0.30;;;;;;;1.50;95.65;97223.09;5045990;28;20479;-64
2023/12/20 01:59:37;;;;;;;0.40;0.40;;;;;;;1.58;95.63;97215.31;5046499;28;20057;-65
2023/12/20 02:02:04;;;;;;;0.30;0.30;;;;;;;1.20;96.38;97166.50;5044764;28;20502;-64
2023/12/20 02:04:31;;;;;;;0.30;0.30;;;;;;;1.57;98.07;97214.50;5045915;28;20507;-64
2023/12/20 02:06:59;;;;;;;0.30;0.30;;;;;;;1.63;98.59;97196.09;5044911;28;20059;-64
2023/12/20 02:09:27;;;;;;;0.30;0.30;;;;;;;1.20;97.75;97144.69;5046562;28;20137;-64
2023/12/20 02:11:54;;;;;;;0.40;0.40;;;;;;;1.60;97.47;97197.50;5046326;28;20067;-64
2023/12/20 02:14:21;;;;;;;0.30;0.30;;;;;;;1.53;98.53;97187.00;5044670;28;20055;-64
2023/12/20 02:16:48;;;;;;;0.30;0.30;;;;;;;1.52;99.78;97185.41;5045993;28;20060;-63
2023/12/20 02:19:15;;;;;;;0.30;0.30;;;;;;;1.55;100.00;97179.31;5046116;28;20431;-63
2023/12/20 02:21:42;;;;;;;0.30;0.30;;;;;;;1.62;100.00;97175.34;5044485;28;20076;-64
2023/12/20 02:24:09;;;;;;;0.40;0.40;;;;;;;0.88;99.14;97097.72;5044907;28;20053;-63
2023/12/20 02:26:36;;;;;;;0.30;0.30;;;;;;;0.86;99.24;97039.97;5045954;28;20056;-62
2023/12/20 02:29:02;;;;;;;0.30;0.30;;;;;;;1.52;99.20;97163.56;5044345;28;20068;-64
2023/12/20 02:31:29;;;;;;;0.30;0.30;;;;;;;1.51;99.44;97167.44;5045352;28;20052;-63
2023/12/20 02:33:56;;;;;;;0.30;0.30;;;;;;;1.51;99.19;97169.34;5044312;28;20061;-65
2023/12/20 02:36:23;;;;;;;0.30;0.30;;;;;;;1.49;99.70;97161.47;5045125;28;20132;-64
2023/12/20 02:38:50;;;;;;;0.40;0.40;;;;;;;1.56;99.08;97159.09;5045141;28;20098;-63
2023/12/20 02:41:18;;;;;;;0.30;0.30;;;;;;;1.59;98.69;97157.69;5045139;28;20517;-63
2023/12/20 02:43:45;;;;;;;0.30;0.30;;;;;;;1.70;98.47;97144.56;5043804;28;20061;-63
2023/12/20 02:46:14;;;;;;;0.30;0.30;;;;;;;1.74;98.46;97148.31;5043616;28;20053;-64
2023/12/20 02:48:40;;;;;;;0.40;0.40;;;;;;;1.72;98.33;97145.09;5044919;28;20205;-63
2023/12/20 02:51:07;;;;;;;0.30;0.30;;;;;;;1.45;98.64;97092.22;5045276;28;20455;-65
2023/12/20 02:53:34;;;;;;;0.30;0.30;;;;;;;1.73;98.92;97141.22;5045217;28;20064;-63
2023/12/20 02:56:01;;;;;;;0.40;0.40;;;;;;;1.81;99.19;97143.19;5045036;28;20060;-63
2023/12/20 02:58:27;;;;;;;0.30;0.30;;;;;;;1.19;98.38;97038.59;5044982;28;20049;-63
2023/12/20 03:00:54;;;;;;;0.30;0.30;;;;;;;1.47;98.48;97095.47;5043612;28;20068;-64
2023/12/20 03:03:21;;;;;;;0.30;0.30;;;;;;;1.76;98.04;97135.13;5045518;28;20139;-64
2023/12/20 03:05:48;;;;;;;0.30;0.30;;;;;;;1.74;98.22;97148.31;5043662;28;20053;-64
2023/12/20 03:08:15;;;;;;;0.30;0.30;;;;;;;1.27;97.98;97057.78;5043014;28;20068;-64
2023/12/20 03:10:41;;;;;;;0.30;0.30;;;;;;;1.71;97.88;97132.56;5044194;28;20058;-64
2023/12/20 03:13:08;;;;;;;0.30;0.30;;;;;;;1.36;97.93;97083.19;5043387;28;20068;-63
2023/12/20 03:15:35;;;;;;;0.30;0.30;;;;;;;0.95;95.94;97017.09;5055887;28;20149;-63
2023/12/20 03:18:02;;;;;;;0.30;0.30;;;;;;;1.53;95.62;97135.16;5043170;28;20063;-63
2023/12/20 03:20:33;;;;;;;0.30;0.30;;;;;;;1.56;95.78;97131.00;5045058;28;20088;-63
2023/12/20 03:23:03;;;;;;;0.30;0.30;;;;;;;1.42;96.14;97131.06;5044872;28;20414;-63
2023/12/20 03:25:30;;;;;;;0.30;0.30;;;;;;;1.42;96.41;97109.22;5044432;28;20057;-64
2023/12/20 03:27:57;;;;;;;0.30;0.30;;;;;;;1.25;96.09;97117.28;5043076;28;20060;-63
2023/12/20 03:30:23;;;;;;;0.30;0.30;;;;;;;1.19;96.62;97104.88;5043163;28;20106;-64
2023/12/20 03:32:50;;;;;;;0.30;0.30;;;;;;;1.39;96.65;97119.97;5042821;28;20060;-63
2023/12/20 03:35:17;;;;;;;0.30;0.30;;;;;;;1.07;96.59;97063.72;5044076;28;20515;-64
2023/12/20 03:37:44;;;;;;;0.30;0.30;;;;;;;1.35;96.39;97097.94;5044775;28;20049;-64
2023/12/20 03:40:11;;;;;;;0.30;0.30;;;;;;;1.40;96.18;97092.38;5042738;28;20512;-64
2023/12/20 03:42:38;;;;;;;0.30;0.30;;;;;;;1.52;96.56;97103.53;5042711;28;20052;-64
2023/12/20 03:45:06;;;;;;;0.38;0.38;;;;;;;1.44;96.93;97084.34;5043797;28;20511;-63
2023/12/20 03:47:33;;;;;;;0.30;0.30;;;;;;;1.39;96.62;97093.47;5044208;28;20132;-64
2023/12/20 03:49:59;;;;;;;0.40;0.40;;;;;;;1.33;97.02;97122.00;5042642;28;20044;-63
2023/12/20 03:52:26;;;;;;;0.30;0.30;;;;;;;1.28;97.39;97097.56;5042767;28;20577;-63
2023/12/20 03:54:53;;;;;;;0.32;0.32;;;;;;;1.26;97.64;97078.00;5044365;28;20951;-63
2023/12/20 03:57:20;;;;;;;0.30;0.30;;;;;;;0.96;97.26;97007.00;5044101;28;20239;-63
2023/12/20 03:59:47;;;;;;;0.30;0.30;;;;;;;1.36;97.17;97075.00;5044012;28;20059;-63
2023/12/20 04:02:14;;;;;;;0.30;0.30;;;;;;;1.33;96.58;97072.91;5042583;28;20438;-66
2023/12/20 04:04:42;;;;;;;0.30;0.30;;;;;;;1.28;96.43;97086.66;5044006;28;20079;-63
2023/12/20 04:07:08;;;;;;;0.30;0.30;;;;;;;0.78;96.64;96999.78;5043640;28;20577;-62
2023/12/20 04:09:35;;;;;;;0.30;0.30;;;;;;;1.42;97.67;97084.66;5041763;28;20536;-64
2023/12/20 04:12:02;;;;;;;0.30;0.30;;;;;;;1.35;97.28;97089.75;5058563;28;20535;-63
2023/12/20 04:14:29;;;;;;;0.30;0.30;;;;;;;1.02;97.50;97061.13;5044005;28;20053;-63
2023/12/20 04:16:56;;;;;;;0.30;0.30;;;;;;;1.02;97.33;97061.13;5042380;28;20057;-62
2023/12/20 04:19:23;;;;;;;0.30;0.30;;;;;;;1.10;97.33;97076.75;5042191;28;20052;-63
2023/12/20 04:21:50;;;;;;;0.30;0.30;;;;;;;1.01;97.33;97058.69;5043354;28;20079;-63
2023/12/20 04:24:17;;;;;;;0.30;0.30;;;;;;;0.71;97.29;97000.22;5042011;28;20084;-64
2023/12/20 04:26:44;;;;;;;0.30;0.30;;;;;;;1.20;97.13;97070.25;5042002;28;20354;-62
2023/12/20 04:29:10;;;;;;;0.30;0.30;;;;;;;0.83;96.61;97002.41;5042985;28;20056;-62
2023/12/20 04:31:37;;;;;;;0.30;0.30;;;;;;;0.75;95.76;97000.41;5041955;28;20056;-63
2023/12/20 04:34:04;;;;;;;0.30;0.30;;;;;;;1.21;96.08;97078.09;5042286;28;20060;-62
2023/12/20 04:36:31;;;;;;;0.40;0.40;;;;;;;1.28;96.44;97070.28;5043398;28;20061;-64
2023/12/20 04:38:57;;;;;;;0.30;0.30;;;;;;;1.17;97.08;97071.66;5043407;28;20061;-63
2023/12/20 04:41:24;;;;;;;0.40;0.40;;;;;;;1.16;97.66;97080.97;5043364;28;20053;-62
2023/12/20 04:43:51;;;;;;;0.30;0.30;;;;;;;1.15;98.41;97075.81;5042037;28;20059;-63
2023/12/20 04:46:17;;;;;;;0.30;0.30;;;;;;;1.13;99.08;97073.41;5042135;28;20079;-63
2023/12/20 04:48:44;;;;;;;0.30;0.30;;;;;;;0.93;99.32;97019.31;5042306;28;20049;-62
2023/12/20 04:51:11;;;;;;;0.35;0.35;;;;;;;1.26;99.26;97056.16;5043810;28;20049;-63
2023/12/20 04:53:38;;;;;;;0.40;0.40;;;;;;;1.42;98.89;97071.03;5043346;28;20132;-63
2023/12/20 04:56:05;;;;;;;0.30;0.30;;;;;;;0.78;98.61;96978.81;5042096;28;20082;-62
2023/12/20 04:58:32;;;;;;;0.30;0.30;;;;;;;1.37;99.24;97067.63;5043026;28;20057;-62
2023/12/20 05:00:59;;;;;;;0.38;0.38;;;;;;;1.28;99.76;97070.28;5041966;28;20063;-64
2023/12/20 05:03:26;;;;;;;0.30;0.30;;;;;;;1.29;99.79;97061.00;5043270;28;20447;-64
2023/12/20 05:05:52;;;;;;;0.30;0.30;;;;;;;1.31;99.98;97052.50;5043723;28;20052;-63
2023/12/20 05:08:19;;;;;;;0.30;0.30;;;;;;;0.60;99.47;96944.34;5043247;28;20057;-63
2023/12/20 05:10:46;;;;;;;0.30;0.30;;;;;;;1.31;99.38;97056.03;5041515;28;20407;-64
2023/12/20 05:13:13;;;;;;;0.30;0.30;;;;;;;1.35;98.25;97059.75;5041978;28;20071;-63
2023/12/20 05:15:40;;;;;;;0.30;0.30;;;;;;;1.31;98.00;97047.84;5043224;28;20550;-64
2023/12/20 05:18:07;;;;;;;0.30;0.30;;;;;;;1.32;97.51;97044.00;5041485;28;20056;-63
2023/12/20 05:20:34;;;;;;;0.30;0.30;;;;;;;0.90;97.08;96998.13;5043370;28;20428;-64
2023/12/20 05:23:01;;;;;;;0.30;0.30;;;;;;;1.06;97.81;97034.03;5041885;28;20102;-64
2023/12/20 05:25:27;;;;;;;0.35;0.35;;;;;;;1.23;97.97;97051.31;5042931;28;20052;-64
2023/12/20 05:27:55;;;;;;;0.30;0.30;;;;;;;1.22;98.29;97044.25;5041711;28;20476;-63
2023/12/20 05:30:22;;;;;;;0.30;0.30;;;;;;;1.21;97.96;97041.84;5041990;28;20073;-63
2023/12/20 05:32:49;;;;;;;0.30;0.30;;;;;;;0.83;98.07;96992.31;5044831;28;20048;-63
2023/12/20 05:35:17;;;;;;;0.28;0.28;;;;;;;1.18;98.41;97103.28;5046732;28;20135;-64
2023/12/20 05:37:44;;;;;;;0.30;0.30;;;;;;;0.99;98.76;97001.75;5046685;28;20056;-64
2023/12/20 05:40:11;;;;;;;0.30;0.30;;;;;;;1.39;98.63;97038.91;5045330;28;20048;-63
2023/12/20 05:42:38;;;;;;;0.30;0.30;;;;;;;0.49;99.20;96898.59;5045683;28;20156;-64
2023/12/20 05:45:05;;;;;;;0.30;0.30;;;;;;;1.37;99.67;97034.88;5046782;28;20053;-64
2023/12/20 05:47:32;;;;;;;0.30;0.30;;;;;;;1.44;98.85;97030.59;5045224;28;20049;-61
2023/12/20 05:49:59;;;;;;;0.30;0.30;;;;;;;0.88;99.15;96958.66;5046110;28;20055;-62
2023/12/20 05:52:26;;;;;;;0.30;0.30;;;;;;;1.37;99.96;97035.69;5046503;28;20139;-61
2023/12/20 05:54:53;;;;;;;0.30;0.30;;;;;;;1.38;99.47;97037.31;5043958;28;20045;-61
2023/12/20 05:57:19;;;;;;;0.30;0.30;;;;;;;0.60;99.40;96906.19;5043350;28;20056;-63
2023/12/20 05:59:46;;;;;;;0.40;0.40;;;;;;;1.47;99.05;97034.63;5043595;28;20136;-63
2023/12/20 06:02:13;;;;;;;0.30;0.30;;;;;;;1.47;97.99;97040.88;5043326;28;20144;-61
2023/12/20 06:04:42;;;;;;;0.30;0.30;;;;;;;1.08;98.21;96961.69;5043143;28;20524;-61
2023/12/20 06:07:12;;;;;;;0.30;0.30;;;;;;;1.52;97.89;97037.22;5044487;28;20049;-61
2023/12/20 06:09:39;;;;;;;0.30;0.30;;;;;;;1.58;97.70;97023.13;5045533;28;20075;-61
2023/12/20 06:12:08;;;;;;;0.30;0.30;;;;;;;1.53;96.83;97025.97;5044106;28;20139;-61
2023/12/20 06:14:34;;;;;;;0.30;0.30;;;;;;;1.21;96.21;96982.63;5045737;28;20103;-61
2023/12/20 06:17:02;;;;;;;0.30;0.30;;;;;;;1.29;95.87;97000.97;5045995;28;20088;-61
2023/12/20 06:19:29;;;;;;;0.30;0.30;;;;;;;0.96;95.99;96947.84;5046139;28;20056;-63
2023/12/20 06:21:56;;;;;;;0.30;0.30;;;;;;;0.91;95.44;96928.88;5045753;28;20428;-61
2023/12/20 06:24:27;;;;;;;0.40;0.40;;;;;;;0.88;95.99;96923.22;5044518;28;20059;-60
2023/12/20 06:26:55;;;;;;;0.40;0.40;;;;;;;1.71;95.72;97007.75;5045865;28;20063;-61
2023/12/20 06:29:22;;;;;;;0.30;0.30;;;;;;;1.64;95.92;96982.03;5045332;28;20110;-62
2023/12/20 06:31:49;;;;;;;0.40;0.40;;;;;;;1.47;96.28;96942.63;5044053;28;20053;-62
2023/12/20 06:34:15;;;;;;;0.40;0.40;;;;;;;1.99;95.92;97013.84;5045514;28;20102;-61
2023/12/20 06:36:42;;;;;;;0.30;0.30;;;;;;;1.33;94.94;96881.91;5043743;28;20508;-61
2023/12/20 06:39:10;;;;;;;0.35;0.35;;;;;;;2.17;94.78;97010.84;5029544;28;20122;-62
2023/12/20 06:41:37;;;;;;;0.40;0.40;;;;;;;2.34;95.11;96999.94;5043862;28;20057;-63
2023/12/20 06:44:04;;;;;;;0.40;0.40;;;;;;;2.44;95.09;97004.28;5043519;28;20049;-61
2023/12/20 06:46:30;;;;;;;0.32;0.32;;;;;;;2.57;95.99;97003.34;5044007;28;20063;-60
2023/12/20 06:48:57;;;;;;;0.32;0.32;;;;;;;2.79;93.46;97000.47;5045464;28;20052;-61
2023/12/20 06:51:25;;;;;;;0.30;0.30;;;;;;;2.75;93.53;96999.53;5044975;28;20045;-62
2023/12/20 06:53:52;;;;;;;0.40;0.40;;;;;;;2.93;94.15;96995.66;5043955;28;20595;-61
2023/12/20 06:56:19;;;;;;;0.40;0.40;;;;;;;3.07;93.58;97001.75;5039130;28;20188;-62
2023/12/20 06:58:46;;;;;;;0.40;0.40;;;;;;;3.18;93.38;97002.25;5030311;28;20408;-60
2023/12/20 07:01:13;;;;;;;0.40;0.40;;;;;;;3.20;92.90;97000.78;5048229;28;20133;-61
2023/12/20 07:03:41;;;;;;;0.40;0.40;;;;;;;3.17;93.91;96956.81;5043563;28;20052;-64
2023/12/20 07:06:08;;;;;;;0.30;0.30;;;;;;;3.05;92.35;96932.88;5025802;28;20100;-63
2023/12/20 07:08:35;;;;;;;0.40;0.40;;;;;;;3.48;90.98;96988.31;5044508;28;20115;-66
2023/12/20 07:11:03;;;;;;;0.30;0.30;;;;;;;3.11;90.27;96906.97;5044451;28;20060;-61
2023/12/20 07:13:30;;;;;;;0.40;0.40;;;;;;;3.88;90.31;96984.16;5039871;28;20088;-63
2023/12/20 07:15:57;;;;;;;0.40;0.40;;;;;;;3.91;88.48;96983.50;5025603;28;20562;-62
2023/12/20 07:18:24;;;;;;;0.45;0.45;;;;;;;3.67;88.90;96928.50;5044707;28;20678;-63
2023/12/20 07:20:51;;;;;;;0.30;0.30;;;;;;;3.80;88.88;96932.13;5044559;28;20336;-62
2023/12/20 07:23:19;;;;;;;0.40;0.40;;;;;;;4.28;89.19;96971.69;5042273;28;20059;-61
2023/12/20 07:25:46;;;;;;;0.40;0.40;;;;;;;4.35;87.99;96971.16;5044388;28;20087;-62
2023/12/20 07:28:13;;;;;;;0.40;0.40;;;;;;;4.14;88.14;96902.59;5044212;28;20055;-66
2023/12/20 07:30:40;;;;;;;0.40;0.40;;;;;;;3.29;88.59;96707.94;5043765;28;20055;-64
2023/12/20 07:33:08;;;;;;;0.50;0.50;;;;;;;4.52;87.50;96903.28;5046437;28;20594;-75
2023/12/20 07:35:35;;;;;;;0.45;0.45;;;;;;;5.17;85.40;96951.16;5043707;28;20083;-61
2023/12/20 07:38:03;;;;;;;0.50;0.50;;;;;;;5.32;84.09;96959.56;5038903;28;20056;-61
2023/12/20 07:40:29;;;;;;;0.40;0.40;;;;;;;5.39;84.25;96945.28;5028723;28;20044;-66
2023/12/20 07:42:58;;;;;;;0.50;0.50;;;;;;;5.46;83.96;96945.53;5043268;28;20049;-60
2023/12/20 07:45:24;;;;;;;0.50;0.50;;;;;;;5.76;83.07;96949.69;5042488;28;20621;-61
2023/12/20 07:47:51;;;;;;;0.50;0.50;;;;;;;5.49;81.07;96915.44;5043296;28;20076;-62
2023/12/20 07:50:18;;;;;;;0.50;0.50;;;;;;;5.97;81.52;96953.19;5043577;28;20053;-61
2023/12/20 07:52:45;;;;;;;0.50;0.50;;;;;;;5.98;80.84;96925.38;5043792;28;20053;-61
2023/12/20 07:55:12;;;;;;;0.50;0.50;;;;;;;5.40;80.38;96804.06;5034387;28;20475;-62
2023/12/20 07:57:38;;;;;;;0.60;0.60;;;;;;;6.33;80.08;96939.44;5038165;28;20054;-63
2023/12/20 08:00:06;;;;;;;0.50;0.50;;;;;;;5.67;79.97;96797.88;5042812;28;20132;-62
2023/12/20 08:02:32;;;;;;;0.60;0.60;;;;;;;5.98;79.71;96831.91;5041937;28;20270;-61
2023/12/20 08:04:59;;;;;;;0.60;0.60;;;;;;;4.85;78.22;96639.94;5035221;28;20049;-66
2023/12/20 08:07:26;;;;;;;0.50;0.50;;;;;;;6.87;78.38;96946.22;5042602;28;20061;-70
2023/12/20 08:09:54;;;;;;;0.60;0.60;;;;;;;7.00;79.15;96938.72;5041660;28;20348;-62
2023/12/20 08:12:21;;;;;;;0.60;0.60;;;;;;;7.16;78.63;96986.41;5045022;28;20138;-70
2023/12/20 08:14:48;;;;;;;0.60;0.60;;;;;;;6.55;76.54;96878.41;5042541;28;20052;-61
2023/12/20 08:17:16;;;;;;;0.60;0.60;;;;;;;7.33;76.21;96937.28;5035229;28;20150;-60
2023/12/20 08:19:42;;;;;;;0.60;0.60;;;;;;;7.49;76.19;96951.91;5043217;28;20131;-69
2023/12/20 08:22:09;;;;;;;0.70;0.70;;;;;;;7.70;76.73;96935.13;5037700;28;20417;-62
2023/12/20 08:24:36;;;;;;;0.70;0.70;;;;;;;7.64;75.94;96936.56;5025021;28;20060;-60
2023/12/20 08:27:04;;;;;;;0.60;0.60;;;;;;;7.45;75.63;96884.06;5038803;28;20061;-65
2023/12/20 08:29:31;;;;;;;0.70;0.70;;;;;;;7.71;73.88;96920.22;5044145;28;20140;-61
2023/12/20 08:31:57;;;;;;;0.60;0.60;;;;;;;7.63;74.17;96886.13;5042134;28;20234;-61
2023/12/20 08:34:24;;;;;;;0.60;0.60;;;;;;;7.28;73.63;96775.03;5038558;28;20131;-63
2023/12/20 08:36:51;;;;;;;0.63;0.63;;;;;;;7.73;75.79;96863.56;5057800;28;20442;-64
2023/12/20 08:39:18;;;;;;;0.70;0.70;;;;;;;7.79;73.46;96822.75;5041663;28;20049;-62
2023/12/20 08:41:45;;;;;;;0.70;0.70;;;;;;;8.17;73.43;96886.28;5045633;28;20041;-62
2023/12/20 08:44:11;;;;;;;0.60;0.60;;;;;;;8.33;71.67;96886.28;5040145;28;20049;-72
2023/12/20 08:46:38;;;;;;;0.70;0.70;;;;;;;8.19;72.61;96852.84;5044334;28;20057;-67
2023/12/20 08:49:05;;;;;;;0.68;0.68;;;;;;;8.74;72.40;96866.31;5045787;28;20049;-73
2023/12/20 08:51:33;;;;;;;0.70;0.70;;;;;;;9.09;72.09;96875.28;5043071;28;20128;-62
2023/12/20 08:54:00;;;;;;;0.73;0.73;;;;;;;9.34;71.78;96871.06;5045152;28;20680;-62
2023/12/20 08:56:27;;;;;;;0.80;0.80;;;;;;;9.06;71.00;96798.66;5036879;28;20583;-66
2023/12/20 08:58:53;;;;;;;0.70;0.70;;;;;;;9.63;69.64;96861.31;5043164;28;20064;-64
2023/12/20 09:01:20;;;;;;;0.73;0.73;;;;;;;9.47;69.14;96797.84;5042835;28;20045;-64
2023/12/20 09:03:47;;;;;;;0.80;0.80;;;;;;;9.53;67.80;96768.69;5041230;28;20057;-67
2023/12/20 09:06:14;;;;;;;0.80;0.80;;;;;;;10.08;67.68;96828.91;5042042;28;20435;-62
2023/12/20 09:08:41;;;;;;;0.90;0.90;;;;;;;10.32;66.60;96845.06;5044296;28;20049;-60
2023/12/20 09:11:08;;;;;;;0.80;0.80;;;;;;;10.46;65.53;96814.81;5045562;28;20472;-61
2023/12/20 09:13:35;;;;;;;0.90;0.90;;;;;;;10.52;64.58;96810.56;5052992;28;20446;-61
2023/12/20 09:16:03;;;;;;;0.88;0.88;;;;;;;10.57;64.24;96804.69;5046122;28;20045;-61
2023/12/20 09:18:30;;;;;;;0.90;0.90;;;;;;;10.39;63.95;96764.09;5044290;28;20048;-77
2023/12/20 09:20:57;;;;;;;0.80;0.80;;;;;;;10.69;63.91;96793.38;5046008;28;20053;-62
2023/12/20 09:23:23;;;;;;;0.90;0.90;;;;;;;10.09;63.29;96661.69;5046395;28;20052;-74
2023/12/20 09:25:50;;;;;;;0.90;0.90;;;;;;;10.57;62.88;96721.59;5047347;28;20053;-68
2023/12/20 09:28:20;;;;;;;0.80;0.80;;;;;;;10.99;61.97;96784.19;5045801;28;20083;-64
2023/12/20 09:30:47;;;;;;;0.90;0.90;;;;;;;10.95;61.73;96750.13;5046165;28;20080;-72
2023/12/20 09:33:16;;;;;;;0.82;0.82;;;;;;;11.20;61.72;96778.88;5044368;28;20147;-60
2023/12/20 09:35:43;;;;;;;1.00;1.00;;;;;;;10.89;62.28;96708.09;5045164;28;20052;-61
2023/12/20 09:38:12;;;;;;;0.90;0.90;;;;;;;11.04;62.03;96720.94;5061377;28;20071;-73
2023/12/20 09:40:42;;;;;;;1.00;1.00;;;;;;;11.13;60.33;96717.84;5043555;28;20053;-68
2023/12/20 09:43:13;;;;;;;0.80;0.80;;;;;;;10.27;61.71;96715.31;5058996;28;20475;-61
2023/12/20 09:45:41;;;;;;;0.82;0.82;;;;;;;10.46;61.76;96734.50;5041439;28;20075;-74
2023/12/20 09:48:10;;;;;;;0.93;0.93;;;;;;;10.80;62.50;96748.34;5046439;28;20128;-72
2023/12/20 09:50:37;;;;;;;0.90;0.90;;;;;;;10.31;61.28;96682.13;5045466;28;20486;-59
2023/12/20 09:53:08;;;;;;;0.88;0.88;;;;;;;10.58;61.32;96730.72;5043719;28;20044;-59
2023/12/20 09:55:36;;;;;;;0.85;0.85;;;;;;;10.50;62.06;96723.47;5045784;28;20053;-57
2023/12/20 09:58:03;;;;;;;0.80;0.80;;;;;;;10.17;61.75;96682.75;5045750;28;20114;-62
2023/12/20 10:00:30;;;;;;;0.85;0.85;;;;;;;9.89;62.28;96642.81;5044869;28;20122;-62
2023/12/20 10:02:59;;;;;;;0.90;0.90;;;;;;;10.02;62.58;96716.13;5045684;28;20563;-58
2023/12/20 10:05:28;;;;;;;0.90;0.90;;;;;;;9.95;62.76;96663.44;5044730;28;20148;-59
2023/12/20 10:07:55;;;;;;;0.80;0.80;;;;;;;10.06;62.03;96681.78;5045206;28;20482;-61
2023/12/20 10:10:22;;;;;;;0.77;0.77;;;;;;;10.33;62.15;96713.81;5042786;28;20106;-74
2023/12/20 10:13:08;;;;;;;0.77;0.77;;;;;;;10.66;61.73;96680.56;5046477;28;20068;-62
2023/12/20 10:15:36;;;;;;;0.80;0.80;;;;;;;10.73;59.32;96672.31;5047690;28;20388;-62
2023/12/20 10:18:04;;;;;;;0.80;0.80;;;;;;;10.52;59.76;96677.66;5044720;28;20049;-62
2023/12/20 10:20:32;;;;;;;0.80;0.80;;;;;;;10.64;59.26;96691.22;5035474;28;20061;-69
2023/12/20 10:23:00;;;;;;;0.80;0.80;;;;;;;9.01;57.92;96392.91;5040868;28;20841;-78
2023/12/20 10:25:27;;;;;;;0.82;0.82;;;;;;;11.03;57.19;96640.94;5047755;28;20142;-60
2023/12/20 10:28:17;;;;;;;0.80;0.80;;;;;;;11.28;57.91;96669.66;5042016;28;20522;-61
2023/12/20 10:30:44;;;;;;;0.80;0.80;;;;;;;11.60;56.77;96665.16;5044963;28;20045;-65
2023/12/20 10:33:11;;;;;;;0.90;0.90;;;;;;;11.84;56.98;96662.56;5045603;28;20488;-62
2023/12/20 10:35:39;;;;;;;1.00;1.00;;;;;;;11.93;57.92;96624.13;5043972;28;20052;-67
2023/12/20 10:38:13;;;;;;;1.00;1.00;;;;;;;11.78;57.11;96599.47;5045178;28;20214;-63
2023/12/20 10:40:41;;;;;;;1.00;1.00;;;;;;;12.47;57.92;96648.16;5043792;28;20510;-66
2023/12/20 10:43:09;;;;;;;0.90;0.90;;;;;;;12.34;55.72;96649.72;5045404;28;20045;-62
2023/12/20 10:45:36;;;;;;;0.90;0.90;;;;;;;11.90;55.75;96579.72;5045220;28;20052;-67
2023/12/20 10:48:03;;;;;;;0.93;0.93;;;;;;;12.47;55.40;96647.38;5044993;28;20045;-64
2023/12/20 10:50:31;;;;;;;0.90;0.90;;;;;;;12.19;54.71;96617.50;5045297;28;20045;-62
2023/12/20 10:52:58;;;;;;;0.90;0.90;;;;;;;11.78;55.06;96635.56;5043740;28;20053;-66
2023/12/20 10:55:26;;;;;;;1.00;1.00;;;;;;;11.58;55.65;96659.19;5044977;28;20053;-66
2023/12/20 10:58:10;;;;;;;1.00;1.00;;;;;;;12.25;55.96;96635.38;5044297;28;20088;-66
2023/12/20 11:00:42;;;;;;;1.00;1.00;;;;;;;12.76;54.86;96633.16;5043983;28;20427;-66
2023/12/20 11:03:11;;;;;;;1.00;1.00;;;;;;;13.13;52.83;96618.94;5044220;28;20541;-61
2023/12/20 11:05:56;;;;;;;1.10;1.10;;;;;;;12.73;51.43;96628.38;5042451;28;20067;-60
2023/12/20 11:09:09;;;;;;;1.00;1.00;;;;;;;13.14;53.06;96624.09;5044115;28;20060;-72
2023/12/20 11:11:46;;;;;;;1.10;1.10;;;;;;;13.40;51.35;96626.47;5043851;28;20081;-63
2023/12/20 11:14:25;;;;;;;1.10;1.10;;;;;;;13.54;50.67;96620.91;5030689;28;20040;-61
2023/12/20 11:17:06;;;;;;;1.00;1.00;;;;;;;12.67;50.15;96513.25;5043132;28;20060;-61
2023/12/20 11:19:35;;;;;;;1.10;1.10;;;;;;;13.60;50.56;96601.78;5044416;28;20063;-61
2023/12/20 11:22:04;;;;;;;1.10;1.10;;;;;;;13.47;49.80;96587.50;5044659;28;20075;-64
2023/12/20 11:24:33;;;;;;;1.10;1.10;;;;;;;13.74;50.13;96609.34;5044833;28;20134;-62
2023/12/20 11:27:02;;;;;;;1.20;1.20;;;;;;;13.75;49.14;96574.72;5043088;28;20114;-64
2023/12/20 11:29:36;;;;;;;1.27;1.27;;;;;;;13.88;49.43;96587.03;5044038;28;20140;-65
2023/12/20 11:32:23;;;;;;;1.00;1.00;;;;;;;13.50;50.21;96583.94;5043539;28;20052;-62
2023/12/20 11:34:58;;;;;;;1.00;1.00;;;;;;;12.38;51.37;96567.19;5044018;28;20052;-61
2023/12/20 11:37:31;;;;;;;1.00;1.00;;;;;;;12.13;52.84;96508.03;5043335;28;20057;-61
2023/12/20 11:40:18;;;;;;;1.00;1.00;;;;;;;12.88;51.84;96568.84;5042939;28;20076;-62
2023/12/20 11:42:48;;;;;;;1.02;1.02;;;;;;;12.96;51.97;96569.66;5042753;28;20592;-63